createdAt,value
2023-02-11T00:02:01.484Z,19.20
2023-02-11T00:04:30.035Z,18.50
2023-02-11T00:06:58.359Z,18.80
2023-02-11T00:09:31.909Z,19.00
2023-02-11T00:14:28.782Z,17.60
2023-02-11T00:16:57.815Z,18.50
2023-02-11T00:19:26.288Z,18.20
2023-02-11T00:21:54.847Z,18.20
2023-02-11T00:24:23.241Z,19.20
2023-02-11T00:26:51.611Z,19.30
2023-02-11T00:29:20.331Z,19.30
2023-02-11T00:31:48.799Z,19.40
2023-02-11T00:34:17.265Z,18.70
2023-02-11T00:36:45.670Z,19.00
2023-02-11T00:39:16.404Z,19.20
2023-02-11T00:41:45.073Z,19.40
2023-02-11T00:44:14.373Z,18.40
2023-02-11T00:46:42.856Z,18.90
2023-02-11T00:49:12.057Z,15.40
2023-02-11T00:51:41.360Z,19.80
2023-02-11T00:54:09.742Z,19.20
2023-02-11T00:56:38.738Z,19.20
2023-02-11T00:59:07.229Z,19.50
2023-02-11T01:01:35.865Z,19.40
2023-02-11T01:04:05.318Z,18.50
2023-02-11T01:06:33.700Z,19.70
2023-02-11T01:09:02.183Z,19.80
2023-02-11T01:11:34.566Z,20.00
2023-02-11T01:14:03.590Z,20.20
2023-02-11T01:16:32.150Z,20.40
2023-02-11T01:19:00.839Z,20.70
2023-02-11T01:21:29.833Z,15.80
2023-02-11T01:23:58.217Z,20.30
2023-02-11T01:26:26.699Z,21.10
2023-02-11T01:28:55.492Z,21.20
2023-02-11T01:31:23.930Z,22.30
2023-02-11T01:33:52.868Z,20.60
2023-02-11T01:36:22.784Z,21.90
2023-02-11T01:38:51.376Z,20.50
2023-02-11T01:41:22.107Z,21.70
2023-02-11T01:43:50.798Z,23.30
2023-02-11T01:46:33.246Z,21.70
2023-02-11T01:49:09.080Z,21.60
2023-02-11T01:52:02.331Z,22.60
2023-02-11T01:54:51.909Z,20.40
2023-02-11T01:57:22.289Z,21.50
2023-02-11T02:00:06.898Z,21.70
2023-02-11T02:02:55.354Z,20.80
2023-02-11T02:05:40.629Z,21.30
2023-02-11T02:08:17.617Z,23.50
2023-02-11T02:10:48.014Z,22.60
2023-02-11T02:13:18.891Z,22.50
2023-02-11T02:16:00.193Z,23.20
2023-02-11T02:18:35.097Z,21.30
2023-02-11T02:21:22.133Z,22.60
2023-02-11T02:24:08.929Z,21.70
2023-02-11T02:26:46.534Z,23.50
2023-02-11T02:29:30.077Z,23.30
2023-02-11T02:32:26.605Z,22.70
2023-02-11T02:35:20.900Z,23.70
2023-02-11T02:37:58.084Z,22.90
2023-02-11T02:40:37.525Z,22.10
2023-02-11T02:43:06.077Z,24.50
2023-02-11T02:45:34.499Z,22.50
2023-02-11T02:48:03.206Z,23.30
2023-02-11T02:50:36.484Z,22.80
2023-02-11T02:53:27.804Z,23.10
2023-02-11T02:56:01.406Z,23.50
2023-02-11T02:58:48.477Z,23.50
2023-02-11T03:01:39.334Z,22.00
2023-02-11T03:04:19.696Z,23.90
2023-02-11T03:06:48.285Z,23.60
2023-02-11T03:09:24.431Z,22.40
2023-02-11T03:11:53.035Z,23.80
2023-02-11T03:14:21.518Z,23.30
2023-02-11T03:16:50.719Z,23.20
2023-02-11T03:19:27.586Z,24.10
2023-02-11T03:21:56.392Z,22.90
2023-02-11T03:24:33.681Z,26.30
2023-02-11T03:27:07.797Z,25.20
2023-02-11T03:29:39.762Z,24.20
2023-02-11T03:32:16.489Z,23.40
2023-02-11T03:34:58.545Z,23.10
2023-02-11T03:37:51.797Z,23.50
2023-02-11T03:40:29.200Z,22.20
2023-02-11T03:43:03.830Z,24.00
2023-02-11T03:45:32.996Z,24.00
2023-02-11T03:48:04.690Z,23.30
2023-02-11T03:50:33.377Z,23.30
2023-02-11T03:53:02.378Z,21.90
2023-02-11T03:55:30.754Z,23.00
2023-02-11T03:57:59.344Z,23.90
2023-02-11T04:00:39.944Z,23.40
2023-02-11T04:03:08.958Z,24.70
2023-02-11T04:05:37.696Z,22.90
2023-02-11T04:08:06.082Z,23.40
2023-02-11T04:10:35.381Z,16.70
2023-02-11T04:13:04.277Z,21.60
2023-02-11T04:15:33.276Z,21.00
2023-02-11T04:18:03.501Z,21.50
2023-02-11T04:20:31.773Z,20.60
2023-02-11T04:23:00.258Z,20.40
2023-02-11T04:25:29.458Z,21.80
2023-02-11T04:27:57.996Z,22.10
2023-02-11T04:30:26.327Z,22.40
2023-02-11T04:32:54.791Z,22.90
2023-02-11T04:35:23.398Z,21.50
2023-02-11T04:37:51.781Z,19.20
2023-02-11T04:40:20.265Z,20.90
2023-02-11T04:42:48.658Z,20.50
2023-02-11T04:45:17.436Z,20.80
2023-02-11T04:47:45.818Z,20.10
2023-02-11T04:50:14.626Z,21.10
2023-02-11T04:52:43.214Z,21.70
2023-02-11T04:55:11.891Z,21.20
2023-02-11T04:57:40.677Z,15.50
2023-02-11T05:00:10.301Z,19.80
2023-02-11T05:05:07.811Z,18.40
2023-02-11T05:07:36.354Z,15.30
2023-02-11T05:10:05.048Z,19.40
2023-02-11T05:12:34.055Z,20.20
2023-02-11T05:15:02.544Z,19.60
2023-02-11T05:17:31.523Z,19.60
2023-02-11T05:19:59.901Z,19.20
2023-02-11T05:22:28.588Z,19.50
2023-02-11T05:24:57.072Z,21.10
2023-02-11T05:27:25.454Z,20.00
2023-02-11T05:29:53.941Z,19.60
2023-02-11T05:32:22.326Z,20.20
2023-02-11T05:34:50.702Z,19.90
2023-02-11T05:37:20.807Z,20.10
2023-02-11T05:39:49.929Z,21.50
2023-02-11T05:42:18.820Z,15.20
2023-02-11T05:44:49.049Z,19.30
2023-02-11T05:47:21.416Z,19.60
2023-02-11T05:49:50.309Z,19.30
2023-02-11T05:52:18.691Z,18.70
2023-02-11T05:54:47.284Z,18.20
2023-02-11T05:57:16.074Z,18.60
2023-02-11T05:59:44.456Z,18.40
2023-02-11T06:02:14.005Z,18.50
2023-02-11T06:04:44.408Z,17.70
2023-02-11T06:07:15.228Z,17.70
2023-02-11T06:09:43.711Z,18.30
2023-02-11T06:12:12.606Z,18.30
2023-02-11T06:14:42.730Z,18.20
2023-02-11T06:17:12.401Z,18.00
2023-02-11T06:19:44.829Z,18.30
2023-02-11T06:22:13.197Z,18.30
2023-02-11T06:24:54.978Z,18.00
2023-02-11T06:27:30.032Z,18.80
2023-02-11T06:29:58.460Z,18.80
2023-02-11T06:32:45.725Z,18.50
2023-02-11T06:35:14.983Z,19.30
2023-02-11T06:37:45.373Z,18.70
2023-02-11T06:40:14.494Z,19.10
2023-02-11T06:42:43.977Z,18.70
2023-02-11T06:45:13.604Z,18.80
2023-02-11T06:47:42.796Z,18.90
2023-02-11T06:50:12.634Z,19.70
2023-02-11T06:52:41.599Z,21.00
2023-02-11T06:55:10.089Z,20.00
2023-02-11T06:57:39.086Z,20.20
2023-02-11T07:01:07.062Z,19.90
2023-02-11T07:03:36.567Z,23.60
2023-02-11T07:06:08.433Z,22.60
2023-02-11T07:08:37.318Z,23.80
2023-02-11T07:11:13.804Z,23.70
2023-02-11T07:13:42.384Z,23.10
2023-02-11T07:16:13.046Z,22.40
2023-02-11T07:18:42.223Z,23.00
2023-02-11T07:21:12.170Z,23.40
2023-02-11T07:23:41.439Z,23.50
2023-02-11T07:26:13.307Z,23.10
2023-02-11T07:28:42.001Z,23.60
2023-02-11T07:31:12.521Z,24.70
2023-02-11T07:33:41.010Z,25.20
2023-02-11T07:36:10.545Z,25.40
2023-02-11T07:38:38.995Z,25.70
2023-02-11T07:41:12.192Z,23.80
2023-02-11T07:43:41.186Z,22.50
2023-02-11T07:46:15.034Z,24.40
2023-02-11T07:48:43.576Z,25.80
2023-02-11T07:51:14.013Z,23.70
2023-02-11T07:53:42.694Z,24.10
2023-02-11T07:56:12.140Z,25.30
2023-02-11T07:58:42.533Z,23.80
2023-02-11T08:01:13.271Z,25.20
2023-02-11T08:03:43.103Z,24.10
2023-02-11T08:08:42.226Z,23.80
2023-02-11T08:11:12.668Z,24.30
2023-02-11T08:13:41.521Z,23.60
2023-02-11T08:16:26.425Z,25.70
2023-02-11T08:18:57.559Z,24.90
2023-02-11T08:21:27.245Z,25.10
2023-02-11T08:23:56.241Z,25.30
2023-02-11T08:26:29.457Z,23.70
2023-02-11T08:28:58.233Z,25.20
2023-02-11T08:31:28.628Z,26.50
2023-02-11T08:33:58.467Z,25.80
2023-02-11T08:36:29.307Z,25.00
2023-02-11T08:39:18.161Z,25.40
2023-02-11T08:41:57.085Z,23.40
2023-02-11T08:44:25.462Z,23.80
2023-02-11T08:46:54.084Z,24.30
2023-02-11T08:49:22.489Z,24.80
2023-02-11T08:51:51.455Z,25.80
2023-02-11T08:54:21.031Z,25.10
2023-02-11T08:56:51.388Z,25.50
2023-02-11T08:59:19.942Z,24.70
2023-02-11T09:01:49.204Z,24.40
2023-02-11T09:04:17.627Z,23.90
2023-02-11T09:06:47.418Z,24.60
2023-02-11T09:11:45.850Z,20.20
2023-02-11T09:14:18.621Z,25.00
2023-02-11T09:16:47.026Z,24.50
2023-02-11T09:19:17.845Z,25.70
2023-02-11T09:21:46.424Z,26.00
2023-02-11T09:24:15.109Z,26.40
2023-02-11T09:26:43.936Z,26.70
2023-02-11T09:29:12.500Z,25.40
2023-02-11T09:31:41.382Z,26.60
2023-02-11T09:34:11.215Z,25.50
2023-02-11T09:39:12.455Z,26.90
2023-02-11T09:41:50.976Z,24.50
2023-02-11T09:44:24.253Z,26.80
2023-02-11T09:47:01.150Z,27.30
2023-02-11T09:50:00.454Z,26.00
2023-02-11T09:52:48.095Z,27.20
2023-02-11T09:55:30.293Z,28.30
2023-02-11T09:57:58.881Z,26.30
2023-02-11T10:00:38.315Z,25.10
2023-02-11T10:03:44.796Z,26.30
2023-02-11T10:06:16.144Z,26.50
2023-02-11T10:08:59.374Z,27.60
2023-02-11T10:11:32.647Z,25.70
2023-02-11T10:14:16.616Z,26.90
2023-02-11T10:17:13.263Z,26.80
2023-02-11T10:20:01.914Z,26.80
2023-02-11T10:22:37.053Z,19.70
2023-02-11T10:25:24.379Z,28.60
2023-02-11T10:27:55.723Z,28.20
2023-02-11T10:30:46.914Z,27.40
2023-02-11T10:33:18.396Z,26.40
2023-02-11T10:35:47.804Z,28.40
2023-02-11T10:38:16.283Z,28.10
2023-02-11T10:40:44.765Z,26.30
2023-02-11T10:43:16.556Z,26.20
2023-02-11T10:45:48.395Z,26.80
2023-02-11T10:48:43.829Z,26.60
2023-02-11T10:51:34.540Z,27.80
2023-02-11T10:54:08.430Z,27.50
2023-02-11T10:56:38.269Z,26.60
2023-02-11T10:59:31.001Z,26.70
2023-02-11T11:02:06.316Z,28.60
2023-02-11T11:04:37.062Z,28.80
2023-02-11T11:07:28.297Z,28.40
2023-02-11T11:09:59.439Z,28.60
2023-02-11T11:12:35.622Z,29.50
2023-02-11T11:15:10.833Z,28.80
2023-02-11T11:17:45.630Z,27.40
2023-02-11T11:20:14.585Z,27.70
2023-02-11T11:22:43.252Z,26.70
2023-02-11T11:25:28.406Z,28.90
2023-02-11T11:27:58.343Z,27.10
2023-02-11T11:30:33.564Z,27.40
2023-02-11T11:33:02.379Z,28.20
2023-02-11T11:35:33.319Z,26.00
2023-02-11T11:38:04.269Z,28.00
2023-02-11T11:40:36.222Z,29.00
2023-02-11T11:43:14.443Z,25.40
2023-02-11T11:45:59.000Z,26.90
2023-02-11T11:48:33.220Z,24.40
2023-02-11T11:51:02.642Z,25.70
2023-02-11T11:53:56.335Z,26.20
2023-02-11T11:56:26.956Z,26.70
2023-02-11T11:58:56.025Z,25.80
2023-02-11T12:01:41.355Z,25.90
2023-02-11T12:04:28.529Z,25.60
2023-02-11T12:07:16.779Z,24.40
2023-02-11T12:10:22.543Z,26.50
2023-02-11T12:13:17.852Z,24.20
2023-02-11T12:15:52.174Z,22.70
2023-02-11T12:18:58.543Z,22.80
2023-02-11T12:21:51.090Z,22.80
2023-02-11T12:24:42.512Z,23.30
2023-02-11T12:27:43.254Z,23.70
2023-02-11T12:30:11.841Z,22.70
2023-02-11T12:33:02.957Z,20.40
2023-02-11T12:35:38.739Z,20.50
2023-02-11T12:38:21.636Z,20.40
2023-02-11T12:41:14.798Z,20.00
2023-02-11T12:43:44.151Z,18.40
2023-02-11T12:46:35.329Z,18.00
2023-02-11T12:49:41.796Z,17.80
2023-02-11T12:52:29.220Z,16.40
2023-02-11T12:55:00.884Z,16.90
2023-02-11T12:57:32.345Z,16.20
2023-02-11T13:00:22.836Z,15.00
2023-02-11T13:03:01.885Z,13.70
2023-02-11T13:05:50.023Z,13.50
2023-02-11T13:08:23.926Z,13.30
2023-02-11T13:10:57.133Z,13.00
2023-02-11T13:13:34.007Z,12.60
2023-02-11T13:16:08.152Z,11.00
2023-02-11T13:18:48.584Z,11.90
2023-02-11T13:21:18.000Z,10.80
2023-02-11T13:23:48.315Z,10.30
2023-02-11T13:26:30.204Z,9.40
2023-02-11T13:29:23.274Z,9.60
2023-02-11T13:31:56.055Z,9.60
2023-02-11T13:34:44.135Z,9.70
2023-02-11T13:37:23.533Z,9.80
2023-02-11T13:40:01.568Z,9.20
2023-02-11T13:42:30.550Z,8.90
2023-02-11T13:44:58.943Z,8.60
2023-02-11T13:47:34.066Z,9.30
2023-02-11T13:50:04.379Z,10.50
2023-02-11T13:52:37.504Z,10.80
2023-02-11T13:55:14.984Z,9.70
2023-02-11T13:57:43.770Z,10.50
2023-02-11T14:00:34.476Z,8.40
2023-02-11T14:03:31.042Z,10.30
2023-02-11T14:06:27.711Z,10.40
2023-02-11T14:09:14.681Z,10.30
2023-02-11T14:11:51.970Z,11.70
2023-02-11T14:14:22.093Z,11.00
2023-02-11T14:16:59.971Z,10.70
2023-02-11T14:19:38.525Z,10.90
2023-02-11T14:22:13.750Z,11.80
2023-02-11T14:24:59.590Z,13.10
2023-02-11T14:27:41.961Z,12.20
2023-02-11T14:30:29.105Z,13.30
2023-02-11T14:33:19.889Z,12.60
2023-02-11T14:36:04.039Z,13.50
2023-02-11T14:38:59.046Z,12.40
2023-02-11T14:41:42.718Z,12.90
2023-02-11T14:44:15.266Z,13.70
2023-02-11T14:46:46.399Z,13.70
2023-02-11T14:49:33.120Z,15.40
2023-02-11T14:52:22.503Z,13.30
2023-02-11T14:54:51.190Z,15.20
2023-02-11T14:57:20.569Z,14.80
2023-02-11T14:59:59.240Z,15.50
2023-02-11T15:02:34.249Z,12.40
2023-02-11T15:05:29.249Z,15.60
2023-02-11T15:07:59.731Z,17.30
2023-02-11T15:10:32.257Z,17.80
2023-02-11T15:13:01.459Z,18.00
2023-02-11T15:15:30.866Z,17.60
2023-02-11T15:18:01.290Z,14.40
2023-02-11T15:20:32.045Z,17.50
2023-02-11T15:23:02.866Z,19.20
2023-02-11T15:25:34.044Z,18.80
2023-02-11T15:28:21.654Z,18.00
2023-02-11T15:31:00.745Z,18.30
2023-02-11T15:33:32.901Z,14.80
2023-02-11T15:36:02.048Z,19.20
2023-02-11T15:38:30.949Z,19.50
2023-02-11T15:41:03.216Z,19.60
2023-02-11T15:43:45.321Z,19.20
2023-02-11T15:46:23.606Z,19.90
2023-02-11T15:48:53.239Z,19.20
2023-02-11T15:51:22.869Z,19.30
2023-02-11T15:54:02.284Z,19.20
2023-02-11T15:56:44.504Z,19.30
2023-02-11T15:59:21.370Z,19.50
2023-02-11T16:01:49.875Z,20.30
2023-02-11T16:04:23.913Z,18.60
2023-02-11T16:06:53.406Z,19.90
2023-02-11T16:09:26.983Z,19.30
2023-02-11T16:11:59.031Z,20.30
2023-02-11T16:14:27.423Z,19.50
2023-02-11T16:17:22.632Z,19.40
2023-02-11T16:19:51.222Z,18.00
2023-02-11T16:22:30.265Z,19.00
2023-02-11T16:24:59.464Z,14.40
2023-02-11T16:27:37.662Z,18.70
2023-02-11T16:30:07.377Z,17.80
2023-02-11T16:32:35.756Z,17.20
2023-02-11T16:35:09.159Z,17.60
2023-02-11T16:37:38.248Z,18.00
2023-02-11T16:40:07.687Z,17.10
2023-02-11T16:42:36.241Z,17.60
2023-02-11T16:45:05.439Z,17.50
2023-02-11T16:47:34.682Z,18.20
2023-02-11T16:50:03.122Z,17.90
2023-02-11T16:52:32.012Z,16.40
2023-02-11T16:57:30.496Z,16.60
2023-02-11T16:59:59.616Z,16.80
2023-02-11T17:02:35.091Z,17.20
2023-02-11T17:05:05.591Z,16.90
2023-02-11T17:07:35.608Z,16.60
2023-02-11T17:10:07.387Z,17.20
2023-02-11T17:12:36.059Z,16.60
2023-02-11T17:15:07.280Z,16.80
2023-02-11T17:17:37.527Z,17.20
2023-02-11T17:20:07.377Z,17.20
2023-02-11T17:22:35.721Z,16.70
2023-02-11T17:25:04.409Z,16.80
2023-02-11T17:27:33.142Z,16.20
2023-02-11T17:30:01.476Z,15.50
2023-02-11T17:32:29.915Z,16.60
2023-02-11T17:37:28.972Z,16.40
2023-02-11T17:39:57.660Z,16.60
2023-02-11T17:42:27.066Z,17.10
2023-02-11T17:44:55.448Z,16.90
2023-02-11T17:47:24.885Z,16.30
2023-02-11T17:49:53.231Z,16.10
2023-02-11T17:52:24.495Z,14.80
2023-02-11T17:54:53.270Z,16.60
2023-02-11T17:57:21.855Z,17.70
2023-02-11T17:59:50.242Z,17.20
2023-02-11T18:02:18.927Z,17.40
2023-02-11T18:04:49.268Z,17.70
2023-02-11T18:07:18.963Z,17.70
2023-02-11T18:09:49.392Z,17.60
2023-02-11T18:12:25.453Z,16.70
2023-02-11T18:14:57.535Z,16.80
2023-02-11T18:17:27.044Z,18.80
2023-02-11T18:19:57.071Z,18.60
2023-02-11T18:22:25.528Z,15.50
2023-02-11T18:24:54.727Z,18.00
2023-02-11T18:29:52.447Z,18.80
2023-02-11T18:32:21.204Z,17.70
2023-02-11T18:34:49.790Z,17.80
2023-02-11T18:37:20.632Z,18.40
2023-02-11T18:39:49.130Z,18.80
2023-02-11T18:42:17.494Z,17.70
2023-02-11T18:44:46.214Z,18.70
2023-02-11T18:47:14.461Z,19.10
2023-02-11T18:49:42.849Z,20.50
2023-02-11T18:52:11.429Z,19.60
2023-02-11T18:54:41.039Z,19.50
2023-02-11T18:57:09.623Z,18.80
2023-02-11T19:02:09.642Z,21.50
2023-02-11T19:04:38.628Z,21.80
2023-02-11T19:07:07.042Z,19.90
2023-02-11T19:09:35.730Z,20.10
2023-02-11T19:12:04.940Z,20.50
2023-02-11T19:14:34.422Z,20.60
2023-02-11T19:18:47.774Z,21.50
2023-02-11T19:21:16.159Z,18.60
2023-02-11T19:23:44.537Z,19.30
2023-02-11T19:26:13.120Z,19.30
2023-02-11T19:28:41.707Z,19.60
2023-02-11T19:31:10.358Z,20.00
2023-02-11T19:33:40.002Z,20.30
2023-02-11T19:36:09.716Z,20.10
2023-02-11T19:38:38.403Z,20.50
2023-02-11T19:41:06.786Z,20.90
2023-02-11T19:43:35.165Z,21.70
2023-02-11T19:46:04.349Z,19.50
2023-02-11T19:48:32.745Z,19.70
2023-02-11T19:51:12.043Z,17.40
2023-02-11T19:53:42.410Z,21.10
2023-02-11T19:56:11.099Z,20.50
2023-02-11T19:58:40.092Z,20.60
2023-02-11T20:01:19.698Z,20.30
2023-02-11T20:03:51.952Z,21.00
2023-02-11T20:06:23.666Z,21.00
2023-02-11T20:08:59.029Z,21.50
2023-02-11T20:11:29.001Z,21.30
2023-02-11T20:16:44.640Z,22.60
2023-02-11T20:19:18.377Z,21.70
2023-02-11T20:21:48.184Z,21.80
2023-02-11T20:24:17.665Z,21.30
2023-02-11T20:26:48.602Z,21.90
2023-02-11T20:29:18.076Z,22.50
2023-02-11T20:31:46.684Z,20.50
2023-02-11T20:34:17.994Z,16.50
2023-02-11T20:36:52.237Z,21.90
2023-02-11T20:39:22.574Z,22.30
2023-02-11T20:41:51.595Z,21.10
2023-02-11T20:44:22.554Z,16.40
2023-02-11T20:46:52.032Z,22.90
2023-02-11T20:49:22.696Z,22.60
2023-02-11T20:51:52.787Z,21.80
2023-02-11T20:56:51.391Z,20.60
2023-02-11T21:01:56.465Z,22.80
2023-02-11T21:04:28.013Z,22.00
2023-02-11T21:06:58.748Z,21.70
2023-02-11T21:09:29.614Z,22.30
2023-02-11T21:12:03.495Z,22.60
2023-02-11T21:14:34.335Z,20.60
2023-02-11T21:17:02.811Z,20.70
2023-02-11T21:19:31.829Z,22.70
2023-02-11T21:22:02.031Z,21.40
2023-02-11T21:27:07.814Z,21.60
2023-02-11T21:29:52.676Z,21.00
2023-02-11T21:32:22.059Z,23.20
2023-02-11T21:34:50.466Z,22.40
2023-02-11T21:37:18.770Z,22.00
2023-02-11T21:39:47.634Z,20.40
2023-02-11T21:42:16.220Z,22.30
2023-02-11T21:44:44.702Z,22.20
2023-02-11T21:47:13.598Z,21.60
2023-02-11T21:49:43.001Z,21.30
2023-02-11T21:52:12.717Z,21.10
2023-02-11T21:54:40.993Z,22.70
2023-02-11T21:57:09.476Z,21.90
2023-02-11T21:59:37.892Z,20.90
2023-02-11T22:02:06.644Z,22.10
2023-02-11T22:04:35.048Z,22.60
2023-02-11T22:07:03.614Z,23.10
2023-02-11T22:09:34.349Z,20.50
2023-02-11T22:12:02.626Z,22.00
2023-02-11T22:14:32.384Z,21.70
2023-02-11T22:17:01.488Z,22.50
2023-02-11T22:19:30.123Z,21.50
2023-02-11T22:21:59.017Z,20.70
2023-02-11T22:24:27.601Z,21.70
2023-02-11T22:26:56.804Z,22.30
2023-02-11T22:29:25.281Z,20.80
2023-02-11T22:31:53.722Z,22.00
2023-02-11T22:34:22.352Z,21.70
2023-02-11T22:36:52.471Z,21.60
2023-02-11T22:39:21.159Z,23.10
2023-02-11T22:41:49.640Z,21.20
2023-02-11T22:44:18.018Z,20.20
2023-02-11T22:46:46.503Z,21.60
2023-02-11T22:49:16.138Z,21.90
2023-02-11T22:51:44.499Z,17.60
2023-02-11T22:54:15.354Z,21.00
2023-02-11T22:56:43.812Z,19.80
2023-02-11T22:59:14.647Z,19.80
2023-02-11T23:01:43.467Z,21.20
2023-02-11T23:04:13.502Z,20.00
2023-02-11T23:06:41.846Z,19.20
2023-02-11T23:09:14.317Z,17.30
2023-02-11T23:11:43.007Z,18.20
2023-02-11T23:14:12.443Z,18.80
2023-02-11T23:16:42.329Z,17.50
2023-02-11T23:19:11.120Z,16.70
2023-02-11T23:21:39.713Z,18.20
2023-02-11T23:24:14.869Z,18.10
2023-02-11T23:26:43.641Z,16.60
2023-02-11T23:29:12.530Z,13.10
2023-02-11T23:31:44.123Z,16.30
2023-02-11T23:34:17.198Z,17.30
2023-02-11T23:36:45.567Z,16.60
2023-02-11T23:39:15.587Z,16.90
2023-02-11T23:41:45.228Z,15.50
2023-02-11T23:44:13.590Z,15.90
2023-02-11T23:46:42.469Z,16.40
2023-02-11T23:49:11.160Z,15.60
2023-02-11T23:51:39.641Z,14.70
2023-02-11T23:54:08.121Z,15.30
2023-02-11T23:56:39.371Z,14.10
2023-02-11T23:59:08.055Z,14.90
